This is the latest recevied weather packets stored in our database for station/object K7OWW-2. If no packets are shown the sender has not sent any weather packets the latest 10 day(s).
| Time | Temp. | Humidity | Pressure | Rain* | Wind** | Luminosity | Snow |
|---|---|---|---|---|---|---|---|
| 1788142437 | 20° C | 31% | 1016.2 hPa | 0 mm | - | - | - |
| 1788142134 | 20° C | 30% | 1016.1 hPa | 0 mm | - | - | - |
| 1788141535 | 20.56° C | 28% | 1016.1 hPa | 0 mm | - | - | - |
| 1788140935 | 21.11° C | 25% | 1016.2 hPa | 0 mm | - | - | - |
| 1788140637 | 21.67° C | 24% | 1016.1 hPa | 0 mm | - | - | - |
| 1788140335 | 21.67° C | 23% | 1016.1 hPa | 0 mm | - | - | - |
| 1788139734 | 22.22° C | 20% | 1016.1 hPa | 0 mm | - | - | - |
| 1788139135 | 22.78° C | 13% | 1016.1 hPa | 0 mm | - | - | - |
| 1788138837 | 22.78° C | 15% | 1016.1 hPa | 0 mm | - | - | - |
| 1788138535 | 23.33° C | 13% | 1016.1 hPa | 0 mm | - | - | - |
| 1788137935 | 23.33° C | 14% | 1016.2 hPa | 0 mm | - | - | - |
| 1788137335 | 23.33° C | 13% | 1016.3 hPa | 0 mm | - | - | - |
| 1788137037 | 23.33° C | 13% | 1016.3 hPa | 0 mm | - | - | - |
| 1788136735 | 23.33° C | 13% | 1016.4 hPa | 0 mm | - | - | - |
| 1788136135 | 23.89° C | 13% | 1016.4 hPa | 0 mm | - | - | - |
| 1788135535 | 24.44° C | 12% | 1016.5 hPa | 0 mm | - | - | - |
| 1788135237 | 24.44° C | 12% | 1016.6 hPa | 0 mm | - | - | - |
| 1788134935 | 24.44° C | 13% | 1016.5 hPa | 0 mm | - | - | - |
| 1788134335 | 24.44° C | 12% | 1016.6 hPa | 0 mm | - | - | - |
| 1788133735 | 23.89° C | 12% | 1016.7 hPa | 0 mm | - | - | - |
| 1788133437 | 23.89° C | 11% | 1016.8 hPa | 0 mm | - | - | - |
| 1788133135 | 23.89° C | 12% | 1016.8 hPa | 0 mm | - | - | - |
| 1788132535 | 24.44° C | 12% | 1017 hPa | 0 mm | - | - | - |
| 1788131935 | 24.44° C | 11% | 1017.1 hPa | 0 mm | - | - | - |
| 1788131637 | 24.44° C | 12% | 1017.2 hPa | 0 mm | - | - | - |
* Rain latest hour (hover to see other rain measurements)
** Current wind speed in m/s (hover to see current wind gust speed)